createdAt,value
2019-04-03T00:01:16.607Z,13.60
2019-04-03T00:03:46.679Z,9.57
2019-04-03T00:06:17.835Z,11.07
2019-04-03T00:08:47.898Z,9.07
2019-04-03T00:11:17.977Z,11.10
2019-04-03T00:13:48.012Z,12.33
2019-04-03T00:16:20.426Z,12.30
2019-04-03T00:18:50.450Z,14.47
2019-04-03T00:21:20.562Z,15.37
2019-04-03T00:23:52.186Z,13.67
2019-04-03T00:26:22.739Z,13.13
2019-04-03T00:28:52.953Z,11.63
2019-04-03T00:31:23.794Z,18.53
2019-04-03T00:33:55.174Z,16.73
2019-04-03T00:36:25.410Z,14.60
2019-04-03T00:38:55.683Z,13.53
2019-04-03T00:41:25.762Z,21.97
2019-04-03T00:43:55.768Z,16.10
2019-04-03T00:46:25.750Z,13.70
2019-04-03T00:48:56.319Z,15.97
2019-04-03T00:51:27.977Z,16.43
2019-04-03T00:53:58.257Z,20.60
2019-04-03T00:56:28.309Z,13.83
2019-04-03T00:58:58.473Z,12.80
2019-04-03T01:01:28.762Z,20.07
2019-04-03T01:03:59.124Z,17.67
2019-04-03T01:06:29.506Z,12.97
2019-04-03T01:09:00.081Z,13.90
2019-04-03T01:11:32.222Z,14.43
2019-04-03T01:14:02.368Z,15.07
2019-04-03T01:16:33.003Z,15.07
2019-04-03T01:19:05.809Z,12.17
2019-04-03T01:21:37.417Z,12.83
2019-04-03T01:24:08.463Z,14.10
2019-04-03T01:26:40.683Z,13.43
2019-04-03T01:29:12.655Z,14.70
2019-04-03T01:31:44.769Z,13.97
2019-04-03T01:34:17.208Z,12.20
2019-04-03T01:36:48.155Z,14.97
2019-04-03T01:39:18.985Z,14.23
2019-04-03T01:41:51.379Z,14.43
2019-04-03T01:44:24.091Z,11.80
2019-04-03T01:46:53.942Z,15.77
2019-04-03T01:49:24.571Z,13.87
2019-04-03T01:51:54.561Z,12.57
2019-04-03T01:54:24.548Z,11.57
2019-04-03T01:56:54.649Z,11.87
2019-04-03T01:59:24.749Z,13.23
2019-04-03T02:01:55.026Z,13.03
2019-04-03T02:04:25.207Z,10.40
2019-04-03T02:06:55.415Z,9.90
2019-04-03T02:09:25.570Z,10.10
2019-04-03T02:11:55.545Z,13.07
2019-04-03T02:14:25.620Z,11.23
2019-04-03T02:16:56.817Z,10.20
2019-04-03T02:19:27.076Z,11.20
2019-04-03T02:21:58.470Z,12.33
2019-04-03T02:24:31.052Z,11.23
2019-04-03T02:27:00.931Z,10.83
2019-04-03T02:29:32.587Z,11.77
2019-04-03T02:32:04.292Z,13.87
2019-04-03T02:34:35.624Z,11.27
2019-04-03T02:37:06.675Z,10.40
2019-04-03T02:39:36.809Z,11.03
2019-04-03T02:42:08.615Z,13.70
2019-04-03T02:44:38.656Z,11.53
2019-04-03T02:47:08.683Z,11.37
2019-04-03T02:49:41.491Z,12.17
2019-04-03T02:52:10.958Z,13.97
2019-04-03T02:54:41.917Z,12.63
2019-04-03T02:57:11.998Z,13.33
2019-04-03T02:59:42.155Z,14.83
2019-04-03T03:02:13.222Z,12.60
2019-04-03T03:04:43.868Z,14.33
2019-04-03T03:07:13.837Z,12.73
2019-04-03T03:09:46.899Z,10.43
2019-04-03T03:12:18.058Z,15.63
2019-04-03T03:14:48.218Z,15.40
2019-04-03T03:17:21.545Z,12.93
2019-04-03T03:19:51.172Z,17.33
2019-04-03T03:22:22.722Z,17.50
2019-04-03T03:24:53.648Z,11.83
2019-04-03T03:27:23.827Z,13.80
2019-04-03T03:29:54.214Z,15.83
2019-04-03T03:32:31.326Z,11.90
2019-04-03T03:35:07.681Z,15.30
2019-04-03T03:37:28.105Z,16.97
2019-04-03T03:39:58.404Z,13.47
2019-04-03T03:42:31.311Z,13.13
2019-04-03T03:45:02.340Z,13.20
2019-04-03T03:47:35.138Z,17.70
2019-04-03T03:50:06.267Z,16.30
2019-04-03T03:52:38.252Z,17.07
2019-04-03T03:55:08.621Z,22.27
2019-04-03T03:57:40.458Z,16.50
2019-04-03T04:00:10.690Z,17.03
2019-04-03T04:02:43.800Z,13.20
2019-04-03T04:05:12.596Z,12.50
2019-04-03T04:07:42.751Z,14.07
2019-04-03T04:10:13.147Z,12.37
2019-04-03T04:12:43.486Z,17.33
2019-04-03T04:15:13.652Z,12.75
2019-04-03T04:17:43.771Z,15.13
2019-04-03T04:20:14.166Z,13.13
2019-04-03T04:22:44.338Z,14.80
2019-04-03T04:25:14.380Z,14.63
2019-04-03T04:27:44.522Z,14.63
2019-04-03T04:30:16.348Z,16.33
2019-04-03T04:32:46.942Z,11.47
2019-04-03T04:35:17.572Z,16.93
2019-04-03T04:37:50.169Z,11.80
2019-04-03T04:40:20.226Z,13.30
2019-04-03T04:42:50.302Z,14.53
2019-04-03T04:45:20.297Z,13.27
2019-04-03T04:47:50.580Z,14.40
2019-04-03T04:50:25.326Z,12.87
2019-04-03T04:52:58.067Z,14.40
2019-04-03T04:55:27.182Z,18.30
2019-04-03T04:57:58.221Z,12.47
2019-04-03T05:00:29.997Z,15.33
2019-04-03T05:03:01.742Z,13.43
2019-04-03T05:05:32.402Z,11.77
2019-04-03T05:08:02.759Z,12.77
2019-04-03T05:10:32.922Z,14.83
2019-04-03T05:13:03.890Z,11.90
2019-04-03T05:15:34.328Z,12.70
2019-04-03T05:18:04.607Z,12.00
2019-04-03T05:20:34.733Z,12.73
2019-04-03T05:23:04.881Z,13.37
2019-04-03T05:25:34.825Z,11.83
2019-04-03T05:28:04.894Z,9.83
2019-04-03T05:30:37.724Z,11.40
2019-04-03T05:33:06.838Z,11.07
2019-04-03T05:35:37.675Z,9.33
2019-04-03T05:38:07.778Z,10.87
2019-04-03T05:40:37.757Z,9.53
2019-04-03T05:43:08.958Z,13.33
2019-04-03T05:45:41.019Z,10.80
2019-04-03T05:48:13.364Z,9.63
2019-04-03T05:50:43.078Z,11.07
2019-04-03T05:53:14.542Z,9.47
2019-04-03T05:55:45.041Z,9.37
2019-04-03T05:58:16.478Z,15.93
2019-04-03T06:00:46.941Z,13.10
2019-04-03T06:03:17.992Z,9.90
2019-04-03T06:05:48.199Z,12.80
2019-04-03T06:08:19.935Z,10.40
2019-04-03T06:10:49.928Z,19.60
2019-04-03T06:13:20.054Z,17.33
2019-04-03T06:15:52.782Z,16.63
2019-04-03T06:18:26.531Z,14.97
2019-04-03T06:20:57.151Z,16.13
2019-04-03T06:23:28.731Z,15.90
2019-04-03T06:26:01.023Z,15.37
2019-04-03T06:28:30.614Z,15.63
2019-04-03T06:31:00.660Z,13.67
2019-04-03T06:33:31.711Z,14.83
2019-04-03T06:36:02.422Z,13.80
2019-04-03T06:38:32.498Z,13.37
2019-04-03T06:41:03.491Z,14.53
2019-04-03T06:43:35.781Z,12.43
2019-04-03T06:46:05.885Z,15.45
2019-04-03T06:48:37.142Z,13.67
2019-04-03T06:51:07.435Z,11.93
2019-04-03T06:53:37.482Z,14.63
2019-04-03T06:56:09.050Z,12.00
2019-04-03T06:58:40.153Z,13.73
2019-04-03T07:01:10.335Z,12.27
2019-04-03T07:03:40.321Z,11.57
2019-04-03T07:06:12.711Z,11.53
2019-04-03T07:08:42.763Z,14.70
2019-04-03T07:11:22.657Z,13.23
2019-04-03T07:13:44.907Z,13.13
2019-04-03T07:16:15.233Z,13.03
2019-04-03T07:18:46.247Z,12.57
2019-04-03T07:21:16.355Z,11.80
2019-04-03T07:23:46.402Z,15.73
2019-04-03T07:26:16.371Z,11.93
2019-04-03T07:28:46.734Z,16.43
2019-04-03T07:31:16.877Z,10.47
2019-04-03T07:33:47.268Z,12.63
2019-04-03T07:36:17.483Z,15.30
2019-04-03T07:38:47.795Z,17.27
2019-04-03T07:41:18.373Z,11.33
2019-04-03T07:43:49.533Z,14.37
2019-04-03T07:46:19.526Z,11.70
2019-04-03T07:48:49.506Z,14.53
2019-04-03T07:51:19.734Z,13.93
2019-04-03T07:53:51.170Z,11.83
2019-04-03T07:56:21.681Z,12.27
2019-04-03T07:58:51.782Z,14.57
2019-04-03T08:01:22.375Z,11.33
2019-04-03T08:03:53.369Z,13.30
2019-04-03T08:06:23.694Z,12.37
2019-04-03T08:09:06.683Z,14.00
2019-04-03T08:11:26.856Z,15.30
2019-04-03T08:13:56.841Z,13.10
2019-04-03T08:16:26.861Z,15.20
2019-04-03T08:18:57.043Z,16.30
2019-04-03T08:21:28.004Z,13.67
2019-04-03T08:23:58.925Z,16.20
2019-04-03T08:26:29.022Z,11.47
2019-04-03T08:29:01.758Z,15.10
2019-04-03T08:31:30.913Z,17.67
2019-04-03T08:34:00.902Z,15.03
2019-04-03T08:36:30.947Z,17.23
2019-04-03T08:39:01.228Z,14.97
2019-04-03T08:41:32.972Z,13.87
2019-04-03T08:44:07.711Z,14.00
2019-04-03T08:46:36.342Z,13.33
2019-04-03T08:49:06.495Z,13.00
2019-04-03T08:51:36.499Z,14.50
2019-04-03T08:54:09.533Z,12.60
2019-04-03T08:56:38.301Z,14.73
2019-04-03T08:59:08.354Z,13.03
2019-04-03T09:01:38.372Z,15.03
2019-04-03T09:04:08.352Z,13.17
2019-04-03T09:06:38.421Z,14.33
2019-04-03T09:09:09.449Z,13.70
2019-04-03T09:11:39.471Z,13.90
2019-04-03T09:14:09.485Z,13.27
2019-04-03T09:16:39.482Z,13.00
2019-04-03T09:19:10.795Z,11.63
2019-04-03T09:21:41.164Z,12.13
2019-04-03T09:24:11.553Z,12.13
2019-04-03T09:26:41.936Z,11.30
2019-04-03T09:29:13.599Z,10.73
2019-04-03T09:31:43.642Z,10.57
2019-04-03T09:34:14.020Z,12.03
2019-04-03T09:36:44.245Z,11.63
2019-04-03T09:39:14.668Z,11.17
2019-04-03T09:41:45.690Z,10.30
2019-04-03T09:44:15.803Z,8.90
2019-04-03T09:46:46.091Z,10.13
2019-04-03T09:49:16.431Z,7.67
2019-04-03T09:51:46.391Z,10.00
2019-04-03T09:54:16.449Z,9.33
2019-04-03T09:56:59.351Z,10.07
2019-04-03T09:59:18.459Z,7.33
2019-04-03T10:01:49.602Z,11.27
2019-04-03T10:04:21.320Z,9.87
2019-04-03T10:06:51.898Z,11.33
2019-04-03T10:09:22.061Z,9.80
2019-04-03T10:11:52.621Z,7.70
2019-04-03T10:14:22.824Z,7.37
2019-04-03T10:16:53.134Z,7.03
2019-04-03T10:19:23.385Z,6.37
2019-04-03T10:21:53.594Z,7.23
2019-04-03T10:24:23.824Z,8.03
2019-04-03T10:26:53.887Z,6.83
2019-04-03T10:29:24.086Z,7.43
2019-04-03T10:31:55.768Z,5.73
2019-04-03T10:34:25.874Z,6.00
2019-04-03T10:36:56.041Z,6.80
2019-04-03T10:39:26.785Z,7.30
2019-04-03T10:41:58.127Z,6.77
2019-04-03T10:47:41.137Z,4.27
2019-04-03T10:50:04.897Z,4.63
2019-04-03T10:52:34.815Z,5.70
2019-04-03T10:55:05.266Z,4.63
2019-04-03T10:57:35.497Z,7.50
2019-04-03T11:00:07.032Z,9.07
2019-04-03T11:02:38.021Z,4.83
2019-04-03T11:05:08.312Z,6.37
2019-04-03T11:07:38.402Z,4.53
2019-04-03T11:10:10.103Z,8.27
2019-04-03T11:12:40.196Z,4.80
2019-04-03T11:15:11.537Z,4.47
2019-04-03T11:17:42.165Z,4.70
2019-04-03T11:20:12.370Z,5.30
2019-04-03T11:22:43.394Z,4.03
2019-04-03T11:25:15.376Z,3.50
2019-04-03T11:27:46.259Z,3.47
2019-04-03T11:30:21.567Z,3.47
2019-04-03T11:32:48.884Z,4.97
2019-04-03T11:35:20.825Z,4.43
2019-04-03T11:37:51.299Z,4.30
2019-04-03T11:40:24.250Z,3.17
2019-04-03T11:42:53.356Z,3.07
2019-04-03T11:45:24.611Z,3.20
2019-04-03T11:47:54.734Z,2.97
2019-04-03T11:50:25.434Z,2.67
2019-04-03T11:52:55.895Z,3.67
2019-04-03T11:55:25.884Z,3.07
2019-04-03T11:57:56.067Z,3.77
2019-04-03T12:00:31.023Z,2.90
2019-04-03T12:03:01.046Z,2.90
2019-04-03T12:05:31.458Z,2.90
2019-04-03T12:08:01.719Z,3.93
2019-04-03T12:10:32.827Z,4.13
2019-04-03T12:13:04.798Z,3.07
2019-04-03T12:15:34.938Z,3.70
2019-04-03T12:18:05.058Z,4.33
2019-04-03T12:20:35.023Z,4.83
2019-04-03T12:23:05.125Z,4.53
2019-04-03T12:25:38.657Z,3.23
2019-04-03T12:28:07.575Z,3.03
2019-04-03T12:30:37.972Z,3.67
2019-04-03T12:33:08.290Z,5.67
2019-04-03T12:35:41.063Z,4.87
2019-04-03T12:38:10.250Z,4.03
2019-04-03T12:40:40.313Z,4.53
2019-04-03T12:43:10.753Z,4.33
2019-04-03T12:45:41.070Z,4.17
2019-04-03T12:48:11.155Z,5.37
2019-04-03T12:50:41.241Z,4.33
2019-04-03T12:53:11.398Z,4.50
2019-04-03T12:55:42.939Z,5.27
2019-04-03T12:58:13.405Z,4.37
2019-04-03T13:00:45.648Z,5.67
2019-04-03T13:03:15.766Z,6.10
2019-04-03T13:05:48.516Z,6.50
2019-04-03T13:08:19.781Z,4.50
2019-04-03T13:10:49.643Z,5.97
2019-04-03T13:13:20.428Z,5.10
2019-04-03T13:15:51.576Z,5.00
2019-04-03T13:18:21.604Z,6.27
2019-04-03T13:20:51.580Z,5.47
2019-04-03T13:23:22.682Z,6.40
2019-04-03T13:25:53.176Z,6.53
2019-04-03T13:28:23.929Z,6.03
2019-04-03T13:30:54.147Z,6.17
2019-04-03T13:33:24.737Z,8.50
2019-04-03T13:35:55.089Z,6.80
2019-04-03T13:38:27.885Z,6.90
2019-04-03T13:40:57.271Z,7.03
2019-04-03T13:43:27.449Z,6.87
2019-04-03T13:45:57.943Z,7.83
2019-04-03T13:48:28.080Z,6.73
2019-04-03T13:50:58.547Z,8.83
2019-04-03T13:53:29.182Z,6.90
2019-04-03T13:55:59.217Z,6.20
2019-04-03T13:58:29.245Z,7.40
2019-04-03T14:01:02.802Z,5.90
2019-04-03T14:03:31.049Z,5.97
2019-04-03T14:06:02.239Z,5.70
2019-04-03T14:08:33.216Z,6.43
2019-04-03T14:11:04.157Z,8.37
2019-04-03T14:13:34.592Z,5.23
2019-04-03T14:16:18.159Z,6.33
2019-04-03T14:18:39.034Z,5.67
2019-04-03T14:21:08.335Z,6.03
2019-04-03T14:23:40.320Z,6.37
2019-04-03T14:26:12.944Z,6.60
2019-04-03T14:28:42.110Z,6.10
2019-04-03T14:31:12.202Z,6.07
2019-04-03T14:33:45.590Z,6.70
2019-04-03T14:36:14.034Z,6.72
2019-04-03T14:38:44.089Z,7.70
2019-04-03T14:41:17.064Z,5.90
2019-04-03T14:43:46.085Z,8.07
2019-04-03T14:46:18.051Z,5.93
2019-04-03T14:48:49.134Z,5.33
2019-04-03T14:51:19.305Z,7.58
2019-04-03T14:53:52.698Z,5.57
2019-04-03T14:56:21.993Z,6.87
2019-04-03T14:58:52.620Z,6.30
2019-04-03T15:01:22.740Z,6.97
2019-04-03T15:03:52.755Z,6.97
2019-04-03T15:06:23.060Z,9.57
2019-04-03T15:08:54.853Z,7.43
2019-04-03T15:11:26.674Z,12.17
2019-04-03T15:13:57.358Z,6.70
2019-04-03T15:16:27.631Z,7.27
2019-04-03T15:19:01.420Z,7.97
2019-04-03T15:21:30.902Z,7.20
2019-04-03T15:24:01.031Z,6.90
2019-04-03T15:26:31.464Z,8.07
2019-04-03T15:29:02.230Z,6.70
2019-04-03T15:31:32.312Z,8.33
2019-04-03T15:34:02.764Z,6.30
2019-04-03T15:36:34.864Z,7.73
2019-04-03T15:39:09.211Z,7.50
2019-04-03T15:41:39.463Z,5.93
2019-04-03T15:44:09.707Z,8.47
2019-04-03T15:46:39.780Z,6.73
2019-04-03T15:49:11.090Z,6.27
2019-04-03T15:51:41.124Z,6.77
2019-04-03T15:54:11.310Z,7.57
2019-04-03T15:56:42.182Z,9.13
2019-04-03T15:59:13.675Z,7.93
2019-04-03T16:01:44.505Z,6.83
2019-04-03T16:04:14.605Z,8.17
2019-04-03T16:06:45.034Z,9.47
2019-04-03T16:09:18.341Z,6.43
2019-04-03T16:11:47.350Z,6.97
2019-04-03T16:14:19.869Z,7.60
2019-04-03T16:16:49.211Z,11.30
2019-04-03T16:19:19.675Z,8.70
2019-04-03T16:21:50.580Z,13.63
2019-04-03T16:24:21.112Z,10.23
2019-04-03T16:26:51.627Z,7.17
2019-04-03T16:29:22.006Z,7.93
2019-04-03T16:31:54.136Z,9.43
2019-04-03T16:34:24.089Z,10.53
2019-04-03T16:36:54.340Z,10.57
2019-04-03T16:39:24.733Z,10.27
2019-04-03T16:41:54.796Z,9.87
2019-04-03T16:44:26.315Z,8.87
2019-04-03T16:46:56.618Z,10.47
2019-04-03T16:49:28.591Z,9.17
2019-04-03T16:51:59.616Z,8.00
2019-04-03T16:54:30.522Z,11.17
2019-04-03T16:57:03.485Z,10.13
2019-04-03T16:59:35.429Z,8.10
2019-04-03T17:02:05.191Z,12.53
2019-04-03T17:04:36.070Z,8.43
2019-04-03T17:07:07.593Z,9.00
2019-04-03T17:09:38.909Z,8.27
2019-04-03T17:12:09.602Z,10.13
2019-04-03T17:14:40.043Z,12.63
2019-04-03T17:17:13.636Z,8.90
2019-04-03T17:19:44.828Z,9.07
2019-04-03T17:22:14.796Z,9.10
2019-04-03T17:24:48.695Z,9.27
2019-04-03T17:27:19.871Z,8.17
2019-04-03T17:29:50.464Z,9.50
2019-04-03T17:32:20.927Z,8.70
2019-04-03T17:34:51.326Z,10.93
2019-04-03T17:37:24.305Z,9.63
2019-04-03T17:39:53.456Z,10.47
2019-04-03T17:42:25.828Z,9.43
2019-04-03T17:44:55.423Z,8.97
2019-04-03T17:47:25.517Z,9.87
2019-04-03T17:49:55.563Z,9.57
2019-04-03T17:52:25.547Z,10.43
2019-04-03T17:54:55.566Z,9.43
2019-04-03T17:57:25.552Z,10.37
2019-04-03T17:59:55.512Z,10.63
2019-04-03T18:02:25.598Z,12.40
2019-04-03T18:04:55.590Z,9.27
2019-04-03T18:07:28.295Z,10.90
2019-04-03T18:09:57.847Z,9.83
2019-04-03T18:12:27.815Z,10.67
2019-04-03T18:14:58.013Z,9.80
2019-04-03T18:17:29.940Z,10.70
2019-04-03T18:20:00.242Z,10.03
2019-04-03T18:22:30.200Z,9.63
2019-04-03T18:25:00.156Z,9.83
2019-04-03T18:27:33.229Z,10.70
2019-04-03T18:30:04.700Z,11.73
2019-04-03T18:32:34.704Z,11.53
2019-04-03T18:35:07.120Z,9.97
2019-04-03T18:37:36.784Z,11.33
2019-04-03T18:40:06.938Z,10.93
2019-04-03T18:42:36.983Z,9.67
2019-04-03T18:45:07.511Z,9.40
2019-04-03T18:47:41.449Z,10.47
2019-04-03T18:50:10.188Z,9.63
2019-04-03T18:52:40.589Z,9.10
2019-04-03T18:55:13.975Z,10.53
2019-04-03T18:57:43.320Z,11.40
2019-04-03T19:00:14.649Z,11.20
2019-04-03T19:02:44.674Z,14.23
2019-04-03T19:05:14.717Z,11.93
2019-04-03T19:07:46.669Z,10.17
2019-04-03T19:10:18.278Z,10.93
2019-04-03T19:12:48.357Z,10.13
2019-04-03T19:15:18.388Z,9.63
2019-04-03T19:17:59.509Z,9.53
2019-04-03T19:20:20.274Z,11.13
2019-04-03T19:23:02.059Z,8.63
2019-04-03T19:25:22.126Z,10.10
2019-04-03T19:27:52.161Z,9.87
2019-04-03T19:30:22.303Z,8.97
2019-04-03T19:32:52.432Z,11.23
2019-04-03T19:35:22.429Z,11.53
2019-04-03T19:37:52.443Z,10.47
2019-04-03T19:40:22.800Z,10.97
2019-04-03T19:42:52.786Z,9.83
2019-04-03T19:45:23.991Z,8.00
2019-04-03T19:47:55.579Z,10.13
2019-04-03T19:50:25.722Z,10.27
2019-04-03T19:52:55.792Z,8.90
2019-04-03T19:55:25.832Z,11.23
2019-04-03T19:57:57.846Z,11.97
2019-04-03T20:00:28.290Z,11.20
2019-04-03T20:02:58.400Z,10.97
2019-04-03T20:05:28.445Z,11.43
2019-04-03T20:07:59.462Z,9.80
2019-04-03T20:10:29.673Z,12.07
2019-04-03T20:12:59.827Z,11.30
2019-04-03T20:15:29.827Z,11.90
2019-04-03T20:17:59.832Z,10.00
2019-04-03T20:20:33.359Z,9.47
2019-04-03T20:23:01.601Z,12.67
2019-04-03T20:25:31.736Z,11.10
2019-04-03T20:28:01.901Z,11.97
2019-04-03T20:30:32.833Z,11.87
2019-04-03T20:33:04.280Z,11.90
2019-04-03T20:35:34.242Z,9.40
2019-04-03T20:38:04.380Z,12.40
2019-04-03T20:40:34.386Z,11.13
2019-04-03T20:43:04.527Z,9.70
2019-04-03T20:45:35.740Z,11.20
2019-04-03T20:48:05.773Z,12.13
2019-04-03T20:50:36.021Z,10.70
2019-04-03T20:53:08.655Z,12.03
2019-04-03T20:55:38.620Z,10.67
2019-04-03T20:58:10.285Z,10.73
2019-04-03T21:00:42.578Z,9.10
2019-04-03T21:03:13.074Z,10.13
2019-04-03T21:05:43.520Z,8.87
2019-04-03T21:08:14.600Z,10.23
2019-04-03T21:10:44.650Z,8.33
2019-04-03T21:13:15.486Z,9.60
2019-04-03T21:15:46.077Z,9.53
2019-04-03T21:18:16.349Z,9.08
2019-04-03T21:20:46.512Z,8.50
2019-04-03T21:23:16.498Z,11.63
2019-04-03T21:25:46.662Z,10.03
2019-04-03T21:28:16.699Z,9.27
2019-04-03T21:30:46.751Z,8.80
2019-04-03T21:33:17.443Z,10.43
2019-04-03T21:35:48.518Z,13.40
2019-04-03T21:38:18.490Z,10.17
2019-04-03T21:40:48.517Z,8.43
2019-04-03T21:43:18.495Z,10.63
2019-04-03T21:45:48.630Z,8.77
2019-04-03T21:48:18.602Z,9.27
2019-04-03T21:50:49.802Z,8.37
2019-04-03T21:53:20.430Z,14.27
2019-04-03T21:55:50.871Z,8.73
2019-04-03T21:58:20.816Z,9.47
2019-04-03T22:01:16.354Z,10.00
2019-04-03T22:03:46.617Z,10.27
2019-04-03T22:06:16.707Z,13.97
2019-04-03T22:08:47.918Z,9.77
2019-04-03T22:11:17.960Z,11.33
2019-04-03T22:13:48.018Z,17.00
2019-04-03T22:16:20.320Z,10.23
2019-04-03T22:18:49.892Z,8.77
2019-04-03T22:21:19.954Z,13.17
2019-04-03T22:23:49.920Z,9.17
2019-04-03T22:26:19.951Z,13.83
2019-04-03T22:28:49.926Z,10.83
2019-04-03T22:31:20.978Z,11.67
2019-04-03T22:33:51.864Z,10.87
2019-04-03T22:36:22.008Z,14.73
2019-04-03T22:38:51.974Z,11.63
2019-04-03T22:41:22.052Z,12.13
2019-04-03T22:43:52.139Z,12.30
2019-04-03T22:46:22.663Z,11.90
2019-04-03T22:48:53.866Z,13.27
2019-04-03T22:51:23.933Z,11.33
2019-04-03T22:53:53.858Z,11.77
2019-04-03T22:56:23.910Z,12.27
2019-04-03T22:58:54.009Z,14.43
2019-04-03T23:01:24.102Z,12.20
2019-04-03T23:03:54.074Z,10.73
2019-04-03T23:06:24.161Z,12.57
2019-04-03T23:08:54.508Z,14.00
2019-04-03T23:11:24.582Z,11.30
2019-04-03T23:13:54.533Z,13.00
2019-04-03T23:16:24.625Z,10.63
2019-04-03T23:18:54.590Z,10.73
2019-04-03T23:21:25.559Z,14.03
2019-04-03T23:23:57.922Z,11.87
2019-04-03T23:26:31.768Z,14.37
2019-04-03T23:29:00.110Z,17.47
2019-04-03T23:31:30.327Z,11.37
2019-04-03T23:34:00.447Z,11.37
2019-04-03T23:36:30.515Z,13.73
2019-04-03T23:39:00.594Z,16.20
2019-04-03T23:41:32.282Z,17.40
2019-04-03T23:44:02.327Z,16.13
2019-04-03T23:46:32.371Z,13.40
2019-04-03T23:49:02.339Z,12.13
2019-04-03T23:51:32.565Z,14.73
2019-04-03T23:54:03.265Z,12.03
2019-04-03T23:56:33.438Z,15.73
2019-04-03T23:59:04.261Z,13.90
